createdAt,value
2023-01-20T00:00:31.432Z,99285.13
2023-01-20T00:05:32.848Z,99280.66
2023-01-20T00:10:34.233Z,99283.19
2023-01-20T00:15:35.623Z,99289.59
2023-01-20T00:20:37.032Z,99289.53
2023-01-20T00:25:38.441Z,99288.94
2023-01-20T00:30:39.953Z,99301.16
2023-01-20T00:35:41.422Z,99306.19
2023-01-20T00:40:42.935Z,99307.31
2023-01-20T00:45:44.403Z,99314.63
2023-01-20T00:50:45.781Z,99319.47
2023-01-20T00:55:47.169Z,99330.75
2023-01-20T01:00:49.262Z,99342.81
2023-01-20T01:05:50.844Z,99356.94
2023-01-20T01:10:55.450Z,99363.16
2023-01-20T01:15:57.125Z,99376.03
2023-01-20T01:20:58.708Z,99380.81
2023-01-20T01:26:00.116Z,99388.66
2023-01-20T01:31:02.469Z,99401.66
2023-01-20T01:36:04.346Z,99393.41
2023-01-20T01:41:05.854Z,99397.66
2023-01-20T01:46:07.574Z,99403.44
2023-01-20T01:51:11.207Z,99404.16
2023-01-20T01:56:12.635Z,99406.81
2023-01-20T02:01:14.157Z,99411.50
2023-01-20T02:06:15.590Z,99411.91
2023-01-20T02:11:16.978Z,99408.28
2023-01-20T02:16:25.157Z,99410.34
2023-01-20T02:21:41.186Z,99415.81
2023-01-20T02:27:03.342Z,99419.50
2023-01-20T02:32:07.494Z,99426.03
2023-01-20T02:37:17.545Z,99428.41
2023-01-20T02:42:22.458Z,99433.84
2023-01-20T02:47:33.709Z,99443.25
2023-01-20T02:52:36.682Z,99450.41
2023-01-20T02:57:48.722Z,99449.16
2023-01-20T03:02:50.835Z,99456.53
2023-01-20T03:07:52.215Z,99456.34
2023-01-20T03:12:55.726Z,99464.06
2023-01-20T03:17:57.131Z,99463.88
2023-01-20T03:22:58.521Z,99469.28
2023-01-20T03:27:59.917Z,99477.53
2023-01-20T03:33:01.323Z,99493.22
2023-01-20T03:38:02.726Z,99496.16
2023-01-20T03:43:10.619Z,99498.81
2023-01-20T03:48:16.737Z,99491.19
2023-01-20T03:53:35.380Z,99503.31
2023-01-20T03:58:41.612Z,99507.91
2023-01-20T04:03:44.190Z,99508.91
2023-01-20T04:08:56.520Z,99505.66
2023-01-20T04:13:58.224Z,99516.41
2023-01-20T04:18:59.665Z,99520.72
2023-01-20T04:24:19.704Z,99522.78
2023-01-20T04:29:21.131Z,99532.69
2023-01-20T04:34:22.523Z,99534.69
2023-01-20T04:39:23.938Z,99534.38
2023-01-20T04:44:25.309Z,99552.03
2023-01-20T04:49:26.759Z,99550.69
2023-01-20T04:54:28.133Z,99548.06
2023-01-20T04:59:29.559Z,99561.41
2023-01-20T05:04:30.953Z,99568.13
2023-01-20T05:09:32.386Z,99569.28
2023-01-20T05:14:33.773Z,99586.06
2023-01-20T05:19:35.174Z,99584.69
2023-01-20T05:24:36.555Z,99592.69
2023-01-20T05:29:37.945Z,99599.56
2023-01-20T05:34:39.310Z,99604.59
2023-01-20T05:39:40.714Z,99608.97
2023-01-20T05:44:42.132Z,99614.09
2023-01-20T05:49:44.071Z,99619.06
2023-01-20T05:54:45.446Z,99624.41
2023-01-20T05:59:51.265Z,99624.91
2023-01-20T06:04:52.526Z,99630.41
2023-01-20T06:09:53.899Z,99635.06
2023-01-20T06:15:10.724Z,99639.84
2023-01-20T06:20:12.140Z,99639.63
2023-01-20T06:25:13.786Z,99652.94
2023-01-20T06:30:15.614Z,99646.81
2023-01-20T06:35:17.335Z,99653.66
2023-01-20T06:40:18.921Z,99667.16
2023-01-20T06:45:20.307Z,99664.09
2023-01-20T06:50:21.672Z,99669.47
2023-01-20T06:55:23.038Z,99680.97
2023-01-20T07:00:24.601Z,99683.53
2023-01-20T07:05:26.013Z,99681.88
2023-01-20T07:10:27.393Z,99691.88
2023-01-20T07:15:28.769Z,99708.53
2023-01-20T07:20:30.156Z,99718.00
2023-01-20T07:25:31.618Z,99724.88
2023-01-20T07:30:33.034Z,99732.84
2023-01-20T07:35:34.438Z,99746.41
2023-01-20T07:40:35.885Z,99755.84
2023-01-20T07:45:37.328Z,99769.63
2023-01-20T07:50:38.778Z,99773.66
2023-01-20T07:55:40.217Z,99774.06
2023-01-20T08:00:41.666Z,99777.38
2023-01-20T08:05:43.115Z,99788.47
2023-01-20T08:10:44.603Z,99789.81
2023-01-20T08:15:46.042Z,99798.16
2023-01-20T08:20:47.457Z,99796.63
2023-01-20T08:25:48.897Z,99809.63
2023-01-20T08:30:50.336Z,99809.53
2023-01-20T08:35:51.819Z,99824.97
2023-01-20T08:40:53.539Z,99833.28
2023-01-20T08:46:01.835Z,99845.13
2023-01-20T08:51:07.546Z,99846.44
2023-01-20T08:56:08.921Z,99853.69
2023-01-20T09:01:30.005Z,99852.16
2023-01-20T09:06:45.318Z,99853.81
2023-01-20T09:11:51.052Z,99862.22
2023-01-20T09:16:52.767Z,99868.50
2023-01-20T09:21:54.160Z,99870.53
2023-01-20T09:26:56.691Z,99875.31
2023-01-20T09:31:58.223Z,99883.72
2023-01-20T09:37:19.346Z,99881.94
2023-01-20T09:43:05.388Z,99882.03
2023-01-20T09:48:15.287Z,99885.16
2023-01-20T09:53:39.863Z,99880.38
2023-01-20T09:58:48.244Z,99875.38
2023-01-20T10:04:05.114Z,99888.13
2023-01-20T10:09:41.711Z,99887.16
2023-01-20T10:14:45.752Z,99896.19
2023-01-20T10:19:56.269Z,99899.38
2023-01-20T10:24:58.803Z,99893.09
2023-01-20T10:30:06.739Z,99895.34
2023-01-20T10:35:16.214Z,99896.94
2023-01-20T10:40:32.915Z,99899.88
2023-01-20T10:45:48.569Z,99905.69
2023-01-20T10:51:13.265Z,99899.50
2023-01-20T10:56:56.590Z,99901.28
2023-01-20T11:02:13.986Z,99912.19
2023-01-20T11:07:16.569Z,99918.03
2023-01-20T11:12:23.209Z,99919.22
2023-01-20T11:17:24.642Z,99921.59
2023-01-20T11:22:34.168Z,99922.16
2023-01-20T11:27:40.955Z,99930.63
2023-01-20T11:32:42.414Z,99930.63
2023-01-20T11:37:43.825Z,99943.78
2023-01-20T11:42:46.628Z,99943.78
2023-01-20T11:48:02.594Z,99953.19
2023-01-20T11:53:16.002Z,99960.50
2023-01-20T11:58:28.297Z,99972.75
2023-01-20T12:03:52.144Z,99978.22
2023-01-20T12:09:04.812Z,99980.16
2023-01-20T12:14:38.044Z,99984.63
2023-01-20T12:19:55.547Z,99992.75
2023-01-20T12:25:08.089Z,99992.91
2023-01-20T12:30:34.699Z,100002.72
2023-01-20T12:35:39.172Z,100003.38
2023-01-20T12:40:52.036Z,100005.19
2023-01-20T12:46:25.016Z,100008.91
2023-01-20T12:51:35.782Z,100021.00
2023-01-20T12:56:53.311Z,100019.53
2023-01-20T13:02:18.534Z,100025.00
2023-01-20T13:07:35.190Z,100018.03
2023-01-20T13:12:54.742Z,100030.28
2023-01-20T13:18:17.798Z,100037.59
2023-01-20T13:23:41.869Z,100036.91
2023-01-20T13:28:53.537Z,100036.19
2023-01-20T13:33:54.922Z,100042.63
2023-01-20T13:39:39.542Z,100048.28
2023-01-20T13:44:42.472Z,100049.25
2023-01-20T13:49:43.905Z,100054.13
2023-01-20T13:54:46.529Z,100057.25
2023-01-20T13:59:47.914Z,100068.06
2023-01-20T14:04:49.523Z,100069.53
2023-01-20T14:09:52.065Z,100073.59
2023-01-20T14:14:54.621Z,100083.38
2023-01-20T14:19:56.109Z,100083.72
2023-01-20T14:24:58.882Z,100086.13
2023-01-20T14:30:13.632Z,100109.84
2023-01-20T14:35:27.610Z,100102.03
2023-01-20T14:40:33.042Z,100112.38
2023-01-20T14:45:34.435Z,100118.78
2023-01-20T14:50:35.849Z,100125.06
2023-01-20T14:55:43.185Z,100123.59
2023-01-20T15:00:48.122Z,100138.03
2023-01-20T15:05:59.550Z,100148.84
2023-01-20T15:11:20.358Z,100156.34
2023-01-20T15:16:36.570Z,100162.72
2023-01-20T15:21:38.056Z,100167.31
2023-01-20T15:26:39.502Z,100177.66
2023-01-20T15:31:40.953Z,100174.59
2023-01-20T15:36:43.489Z,100190.03
2023-01-20T15:41:45.495Z,100191.91
2023-01-20T15:46:46.897Z,100194.31
2023-01-20T15:51:48.335Z,100201.47
2023-01-20T15:56:49.765Z,100204.31
2023-01-20T16:01:51.405Z,100206.78
2023-01-20T16:06:52.845Z,100214.78
2023-01-20T16:11:54.386Z,100217.75
2023-01-20T16:16:55.767Z,100224.41
2023-01-20T16:21:57.196Z,100227.25
2023-01-20T16:26:58.646Z,100235.22
2023-01-20T16:32:00.080Z,100247.19
2023-01-20T16:37:01.555Z,100245.41
2023-01-20T16:42:02.962Z,100251.59
2023-01-20T16:47:04.652Z,100270.00
2023-01-20T16:52:06.150Z,100271.78
2023-01-20T16:57:08.460Z,100284.00
2023-01-20T17:02:11.094Z,100299.72
2023-01-20T17:07:12.533Z,100302.31
2023-01-20T17:12:13.931Z,100304.47
2023-01-20T17:17:15.323Z,100304.19
2023-01-20T17:22:17.103Z,100317.50
2023-01-20T17:27:18.493Z,100325.09
2023-01-20T17:32:19.866Z,100330.34
2023-01-20T17:37:21.258Z,100327.97
2023-01-20T17:42:22.681Z,100332.22
2023-01-20T17:47:24.301Z,100331.28
2023-01-20T17:52:25.796Z,100340.44
2023-01-20T17:57:28.077Z,100347.88
2023-01-20T18:02:29.654Z,100356.84
2023-01-20T18:07:31.128Z,100349.81
2023-01-20T18:12:32.852Z,100362.75
2023-01-20T18:17:34.381Z,100361.91
2023-01-20T18:22:35.854Z,100370.03
2023-01-20T18:27:37.842Z,100373.19
2023-01-20T18:32:39.340Z,100378.56
2023-01-20T18:37:40.726Z,100372.63
2023-01-20T18:42:44.812Z,100377.34
2023-01-20T18:47:47.775Z,100380.75
2023-01-20T18:52:49.156Z,100388.41
2023-01-20T18:57:50.564Z,100395.31
2023-01-20T19:02:52.348Z,100398.97
2023-01-20T19:07:53.751Z,100397.34
2023-01-20T19:12:55.114Z,100397.75
2023-01-20T19:17:56.481Z,100400.78
2023-01-20T19:22:57.890Z,100392.22
2023-01-20T19:27:59.275Z,100403.22
2023-01-20T19:33:00.650Z,100396.28
2023-01-20T19:38:02.050Z,100398.97
2023-01-20T19:43:03.431Z,100399.31
2023-01-20T19:48:04.869Z,100404.44
2023-01-20T19:53:06.274Z,100410.16
2023-01-20T19:58:07.694Z,100411.41
2023-01-20T20:03:09.075Z,100424.16
2023-01-20T20:08:10.465Z,100432.56
2023-01-20T20:13:11.839Z,100437.72
2023-01-20T20:18:13.229Z,100437.25
2023-01-20T20:23:14.602Z,100441.38
2023-01-20T20:28:15.984Z,100452.53
2023-01-20T20:33:18.436Z,100457.44
2023-01-20T20:38:19.867Z,100461.47
2023-01-20T20:43:24.835Z,100473.78
2023-01-20T20:48:26.382Z,100479.84
2023-01-20T20:53:27.822Z,100483.47
2023-01-20T20:58:31.572Z,100481.63
2023-01-20T21:03:34.229Z,100485.59
2023-01-20T21:08:35.666Z,100491.00
2023-01-20T21:13:37.052Z,100498.56
2023-01-20T21:18:38.621Z,100499.69
2023-01-20T21:23:42.842Z,100504.94
2023-01-20T21:28:44.340Z,100513.91
2023-01-20T21:33:46.423Z,100509.03
2023-01-20T21:38:47.851Z,100517.13
2023-01-20T21:44:07.795Z,100520.25
2023-01-20T21:49:27.483Z,100518.06
2023-01-20T21:54:29.793Z,100529.25
2023-01-20T21:59:31.269Z,100532.25
2023-01-20T22:04:32.744Z,100535.66
2023-01-20T22:09:34.133Z,100548.38
2023-01-20T22:14:35.801Z,100544.78
2023-01-20T22:19:37.195Z,100556.59
2023-01-20T22:24:38.645Z,100548.47
2023-01-20T22:29:40.039Z,100560.16
2023-01-20T22:34:41.811Z,100558.47
2023-01-20T22:39:43.334Z,100564.63
2023-01-20T22:44:44.844Z,100556.91
2023-01-20T22:49:46.213Z,100554.50
2023-01-20T22:54:47.846Z,100550.25
2023-01-20T22:59:49.258Z,100555.94
2023-01-20T23:04:52.271Z,100557.91
2023-01-20T23:09:53.663Z,100557.66
2023-01-20T23:15:00.845Z,100558.22
2023-01-20T23:20:02.356Z,100553.69
2023-01-20T23:25:03.910Z,100566.53
2023-01-20T23:30:05.879Z,100563.75
2023-01-20T23:35:07.459Z,100576.72
2023-01-20T23:40:09.593Z,100579.09
2023-01-20T23:45:11.205Z,100582.47
2023-01-20T23:50:12.716Z,100583.97
2023-01-20T23:55:14.207Z,100589.78
